Rio Blanco — D5BO9 — position and weather

sailwx.info

Track history (hours):
 
Tides and Currents Weather Stations Pressure Air Temp Water Temp Dewpoint Dewpoint Depression Visibility Wind Speed Wind Dir Waves Ship Positions

Rio Blanco

Last reported at 2014-Nov-26 12:33 UTC. Time now 2014-Nov-26 12:46 UTC.
Position N 53°22' E 004°40'.

Length 286 m; draft 12.5 m.

Type: Ship (hazmat cat A). MMSI: 636092395.

Date/timePositionNaut miles runAvg speedWind from/ knotsBaromVisibWave heightAir tempDewpointWater temp
2014-Nov-26 12:33N 53°22' E 004°40'1312.8
2014-Nov-26 11:33N 53°10' E 004°31'1312.7
2014-Nov-26 10:33N 52°59' E 004°21'1413.8
2014-Nov-26 09:33N 52°47' E 004°11'1515.2
2014-Nov-26 08:33N 52°35' E 003°54'1918.9
2014-Nov-26 07:33N 52°22' E 003°31'2018.4
2014-Nov-26 06:28N 52°08' E 003°09'1916.5
2014-Nov-26 05:18N 51°54' E 002°47'1817.2
2014-Nov-26 04:16N 51°41' E 002°29'1217.4
2014-Nov-26 03:34N 51°31' E 002°16'1717.1
2014-Nov-26 02:34N 51°15' E 002°06'1817.6
2014-Nov-26 01:33N 51°06' E 001°42'1717.3
2014-Nov-26 00:33N 50°51' E 001°27'3515.8
2014-Nov-25 22:19N 50°26' E 000°48'1316.9
2014-Nov-25 21:34N 50°22' E 000°29'12312.9
2014-Nov-25 12:00N 49°48' W 002°36'   050 / 271016.0 5.4 15.011.916.0
2014-Nov-23 01:32N 38°02' W 009°40'1212.5
2014-Nov-23 00:33N 37°50' W 009°36'1312.9
2014-Nov-22 23:33N 37°38' W 009°32'1312.9
2014-Nov-22 22:33N 37°25' W 009°29'1312.9
2014-Nov-22 21:33N 37°13' W 009°25'1313.1
2014-Nov-22 20:33N 36°60' W 009°21'1312.6
2014-Nov-22 19:33N 36°49' W 009°14'2713.6
2014-Nov-22 17:33N 36°38' W 008°43'1413.8
2014-Nov-22 16:33N 36°34' W 008°27'1414.0
2014-Nov-22 15:33N 36°29' W 008°10'1414.1
2014-Nov-22 14:33N 36°24' W 007°54'11215.3
2014-Nov-22 07:15N 35°58' W 005°39'913.2
2014-Nov-22 06:33N 35°60' W 005°28'1111.0
2014-Nov-22 05:33N 36°02' W 005°15'21512.6
2014-Nov-21 12:28N 36°33' W 000°50'2812.7
2014-Nov-21 10:14N 36°41' W 000°16'913.4
2014-Nov-21 09:33N 36°43' W 000°05'1713.3
2014-Nov-21 08:16N 36°48' E 000°15'11813.1
2014-Nov-20 23:15N 37°21' E 002°37'2413.4
2014-Nov-20 21:26N 37°27' E 003°06'1213.0
2014-Nov-20 20:32N 37°30' E 003°20'1313.0
2014-Nov-20 19:34N 37°34' E 003°36'1413.2
2014-Nov-20 18:32N 37°38' E 003°52'1313.3
2014-Nov-20 17:32N 37°42' E 004°08'1313.4
2014-Nov-20 16:33N 37°45' E 004°24'1313.3
2014-Nov-20 15:33N 37°49' E 004°40'1313.1
2014-Nov-20 14:33N 37°53' E 004°56'1313.1
2014-Nov-20 13:33N 37°56' E 005°12'1413.8
2014-Nov-20 12:33N 38°00' E 005°29'4314.2
2014-Nov-20 09:33N 38°12' E 006°21'1514.5
2014-Nov-20 08:32N 38°16' E 006°39'5217.3
2014-Nov-20 05:31N 38°30' E 007°43'4614.0
2014-Nov-20 02:14N 38°43' E 008°40'1014.2
2014-Nov-20 01:33N 38°46' E 008°52'1414.4
2014-Nov-20 00:34N 38°55' E 009°05'1313.3
2014-Nov-19 23:34N 39°09' E 009°06'4 4.2
2014-Nov-19 22:34N 39°13' E 009°04'0 0.0
2014-Nov-19 21:31N 39°13' E 009°04'0 0.0
2014-Nov-19 20:31N 39°13' E 009°04'0 0.0
2014-Nov-19 19:31N 39°13' E 009°04'0 0.0
2014-Nov-19 18:31N 39°13' E 009°04'0 0.0
2014-Nov-19 17:31N 39°13' E 009°04'0 0.0
2014-Nov-19 16:31N 39°13' E 009°04'0 0.0
2014-Nov-19 15:31N 39°13' E 009°04'0 0.0
2014-Nov-19 14:31N 39°13' E 009°04'0 0.0
2014-Nov-19 13:31N 39°13' E 009°04'0 0.0
2014-Nov-19 12:31N 39°13' E 009°04'1 0.5
2014-Nov-19 11:33N 39°13' E 009°04'4 4.4
2014-Nov-19 10:33N 39°09' E 009°06'3 3.0
2014-Nov-19 09:33N 39°06' E 009°07'1212.0
2014-Nov-19 08:33N 38°59' E 009°20'1313.4
2014-Nov-19 07:33N 38°52' E 009°34'22113.0
2014-Nov-18 14:34N 37°02' E 013°38'1312.7
2014-Nov-18 13:33N 36°56' E 013°52'1313.4
2014-Nov-18 12:33N 36°50' E 014°07'1313.5
2014-Nov-18 11:34N 36°44' E 014°22'1313.3
2014-Nov-18 10:33N 36°38' E 014°37'1414.3
2014-Nov-18 09:33N 36°34' E 014°54'1514.7
2014-Nov-18 08:31N 36°29' E 015°12'  
Track history (hours):
 
Tides and Currents Weather Stations Pressure Air Temp Water Temp Dewpoint Dewpoint Depression Visibility Wind Speed Wind Dir Waves Ship Positions

Rio Blanco

Last reported at 2014-Nov-26 12:33 UTC. Time now 2014-Nov-26 12:46 UTC.
Position N 53°22' E 004°40'.

Length 286 m; draft 12.5 m.

Type: Ship (hazmat cat A). MMSI: 636092395.

Date/timePositionNaut miles runAvg speedWind from/ knotsBaromVisibWave heightAir tempDewpointWater temp
2014-Nov-26 12:33N 53°22' E 004°40'1312.8
2014-Nov-26 11:33N 53°10' E 004°31'1312.7
2014-Nov-26 10:33N 52°59' E 004°21'1413.8
2014-Nov-26 09:33N 52°47' E 004°11'1515.2
2014-Nov-26 08:33N 52°35' E 003°54'1918.9
2014-Nov-26 07:33N 52°22' E 003°31'2018.4
2014-Nov-26 06:28N 52°08' E 003°09'1916.5
2014-Nov-26 05:18N 51°54' E 002°47'1817.2
2014-Nov-26 04:16N 51°41' E 002°29'1217.4
2014-Nov-26 03:34N 51°31' E 002°16'1717.1
2014-Nov-26 02:34N 51°15' E 002°06'1817.6
2014-Nov-26 01:33N 51°06' E 001°42'1717.3
2014-Nov-26 00:33N 50°51' E 001°27'3515.8
2014-Nov-25 22:19N 50°26' E 000°48'1316.9
2014-Nov-25 21:34N 50°22' E 000°29'12312.9
2014-Nov-25 12:00N 49°48' W 002°36'   050 / 271016.0 5.4 15.011.916.0
2014-Nov-23 01:32N 38°02' W 009°40'1212.5
2014-Nov-23 00:33N 37°50' W 009°36'1312.9
2014-Nov-22 23:33N 37°38' W 009°32'1312.9
2014-Nov-22 22:33N 37°25' W 009°29'1312.9
2014-Nov-22 21:33N 37°13' W 009°25'1313.1
2014-Nov-22 20:33N 36°60' W 009°21'1312.6
2014-Nov-22 19:33N 36°49' W 009°14'2713.6
2014-Nov-22 17:33N 36°38' W 008°43'1413.8
2014-Nov-22 16:33N 36°34' W 008°27'1414.0
2014-Nov-22 15:33N 36°29' W 008°10'1414.1
2014-Nov-22 14:33N 36°24' W 007°54'11215.3
2014-Nov-22 07:15N 35°58' W 005°39'913.2
2014-Nov-22 06:33N 35°60' W 005°28'1111.0
2014-Nov-22 05:33N 36°02' W 005°15'21512.6
2014-Nov-21 12:28N 36°33' W 000°50'2812.7
2014-Nov-21 10:14N 36°41' W 000°16'913.4
2014-Nov-21 09:33N 36°43' W 000°05'1713.3
2014-Nov-21 08:16N 36°48' E 000°15'11813.1
2014-Nov-20 23:15N 37°21' E 002°37'2413.4
2014-Nov-20 21:26N 37°27' E 003°06'1213.0
2014-Nov-20 20:32N 37°30' E 003°20'1313.0
2014-Nov-20 19:34N 37°34' E 003°36'1413.2
2014-Nov-20 18:32N 37°38' E 003°52'1313.3
2014-Nov-20 17:32N 37°42' E 004°08'1313.4
2014-Nov-20 16:33N 37°45' E 004°24'1313.3
2014-Nov-20 15:33N 37°49' E 004°40'1313.1
2014-Nov-20 14:33N 37°53' E 004°56'1313.1
2014-Nov-20 13:33N 37°56' E 005°12'1413.8
2014-Nov-20 12:33N 38°00' E 005°29'4314.2
2014-Nov-20 09:33N 38°12' E 006°21'1514.5
2014-Nov-20 08:32N 38°16' E 006°39'5217.3
2014-Nov-20 05:31N 38°30' E 007°43'4614.0
2014-Nov-20 02:14N 38°43' E 008°40'1014.2
2014-Nov-20 01:33N 38°46' E 008°52'1414.4
2014-Nov-20 00:34N 38°55' E 009°05'1313.3
2014-Nov-19 23:34N 39°09' E 009°06'4 4.2
2014-Nov-19 22:34N 39°13' E 009°04'0 0.0
2014-Nov-19 21:31N 39°13' E 009°04'0 0.0
2014-Nov-19 20:31N 39°13' E 009°04'0 0.0
2014-Nov-19 19:31N 39°13' E 009°04'0 0.0
2014-Nov-19 18:31N 39°13' E 009°04'0 0.0
2014-Nov-19 17:31N 39°13' E 009°04'0 0.0
2014-Nov-19 16:31N 39°13' E 009°04'0 0.0
2014-Nov-19 15:31N 39°13' E 009°04'0 0.0
2014-Nov-19 14:31N 39°13' E 009°04'0 0.0
2014-Nov-19 13:31N 39°13' E 009°04'0 0.0
2014-Nov-19 12:31N 39°13' E 009°04'1 0.5
2014-Nov-19 11:33N 39°13' E 009°04'4 4.4
2014-Nov-19 10:33N 39°09' E 009°06'3 3.0
2014-Nov-19 09:33N 39°06' E 009°07'1212.0
2014-Nov-19 08:33N 38°59' E 009°20'1313.4
2014-Nov-19 07:33N 38°52' E 009°34'22113.0
2014-Nov-18 14:34N 37°02' E 013°38'1312.7
2014-Nov-18 13:33N 36°56' E 013°52'1313.4
2014-Nov-18 12:33N 36°50' E 014°07'1313.5
2014-Nov-18 11:34N 36°44' E 014°22'1313.3
2014-Nov-18 10:33N 36°38' E 014°37'1414.3
2014-Nov-18 09:33N 36°34' E 014°54'1514.7
2014-Nov-18 08:31N 36°29' E 015°12'  

Dump ship's entire track history